Time;durP1;ratioP1;P1;durP2;ratioP2;P2;SDS_P1;SDS_P2;PMS_P1;PMS_P2;Temp;Humidity;BMP_temperature;BMP_pressure;BME280_temperature;BME280_humidity;BME280_pressure;Samples;Min_cycle;Max_cycle;Signal;HPM_P1;HPM_P2
2021/07/25 00:01:28;;;;;;;8.20;7.37;;;19.00;99.90;;;;;;5070571;28;20474;-75
2021/07/25 00:03:55;;;;;;;9.30;7.83;;;19.00;99.90;;;;;;5070262;28;20458;-76
2021/07/25 00:06:22;;;;;;;8.93;7.93;;;19.00;99.90;;;;;;5070688;28;20462;-73
2021/07/25 00:08:48;;;;;;;8.67;7.73;;;18.90;99.90;;;;;;5070858;28;20458;-74
2021/07/25 00:11:17;;;;;;;8.70;7.80;;;18.90;99.90;;;;;;5069771;28;20458;-76
2021/07/25 00:13:47;;;;;;;8.00;7.13;;;18.90;99.90;;;;;;5070755;28;20474;-76
2021/07/25 00:16:15;;;;;;;11.60;8.03;;;18.90;99.90;;;;;;5070080;28;20581;-76
2021/07/25 00:18:42;;;;;;;9.40;7.60;;;18.90;99.90;;;;;;5070360;28;20501;-76
2021/07/25 00:21:09;;;;;;;7.93;7.20;;;18.90;99.90;;;;;;5069653;28;20466;-74
2021/07/25 00:23:37;;;;;;;9.00;8.20;;;18.90;99.90;;;;;;5069987;28;20458;-75
2021/07/25 00:26:06;;;;;;;8.60;6.93;;;19.00;99.90;;;;;;5069904;28;20498;-76
2021/07/25 00:28:35;;;;;;;8.97;8.07;;;18.90;99.90;;;;;;5070014;28;20465;-76
2021/07/25 00:31:08;;;;;;;8.70;7.87;;;18.80;99.90;;;;;;5069532;28;20457;-74
2021/07/25 00:33:37;;;;;;;7.77;7.00;;;18.80;99.90;;;;;;5069795;28;20541;-75
2021/07/25 00:36:06;;;;;;;12.17;7.80;;;18.80;99.90;;;;;;5069698;28;20498;-74
2021/07/25 00:38:33;;;;;;;8.43;7.50;;;18.80;99.90;;;;;;5069955;28;20495;-75
2021/07/25 00:41:07;;;;;;;9.50;8.60;;;18.80;99.90;;;;;;5069039;28;20469;-76
2021/07/25 00:43:34;;;;;;;9.77;8.30;;;18.80;99.90;;;;;;5070023;28;20476;-75
2021/07/25 00:46:00;;;;;;;8.67;7.70;;;18.80;99.90;;;;;;5069552;28;21202;-76
2021/07/25 00:48:27;;;;;;;9.60;7.70;;;18.80;99.90;;;;;;5069705;28;20458;-75
2021/07/25 00:50:57;;;;;;;13.73;7.90;;;18.80;99.90;;;;;;5068644;28;20474;-74
2021/07/25 00:53:24;;;;;;;9.23;8.13;;;18.80;99.90;;;;;;5069496;28;20465;-75
2021/07/25 00:55:52;;;;;;;11.10;7.80;;;18.80;99.90;;;;;;5069675;28;20482;-77
2021/07/25 00:58:19;;;;;;;8.63;7.53;;;18.80;99.90;;;;;;5069269;28;20490;-77
2021/07/25 01:00:46;;;;;;;9.70;7.40;;;18.80;99.90;;;;;;5069263;28;20830;-77
2021/07/25 01:03:25;;;;;;;9.20;7.10;;;18.80;99.90;;;;;;5068650;28;20473;-77
2021/07/25 01:06:03;;;;;;;8.40;7.60;;;18.80;99.90;;;;;;5069297;28;20478;-77
2021/07/25 01:08:37;;;;;;;11.23;7.80;;;18.80;99.90;;;;;;5069714;28;20465;-77
2021/07/25 01:11:06;;;;;;;8.13;7.33;;;18.80;99.90;;;;;;5071927;28;20463;-79
2021/07/25 01:13:37;;;;;;;8.23;7.40;;;18.80;99.90;;;;;;5069845;28;20565;-78
2021/07/25 01:16:04;;;;;;;8.73;7.30;;;18.70;99.90;;;;;;5069430;28;20493;-79
2021/07/25 01:18:31;;;;;;;8.67;7.83;;;18.70;99.90;;;;;;5070142;28;20889;-79
2021/07/25 01:20:59;;;;;;;8.30;6.87;;;18.70;99.90;;;;;;5068650;28;20459;-80
2021/07/25 01:23:26;;;;;;;10.27;7.50;;;18.70;99.90;;;;;;5069692;28;20839;-79
2021/07/25 01:26:00;;;;;;;11.40;8.63;;;18.70;99.90;;;;;;5069623;28;20485;-79
2021/07/25 01:28:30;;;;;;;8.60;7.70;;;18.70;99.90;;;;;;5069585;28;20892;-79
2021/07/25 01:30:59;;;;;;;9.20;7.57;;;18.70;99.90;;;;;;5068903;28;20458;-79
2021/07/25 01:33:28;;;;;;;9.57;7.93;;;18.70;99.90;;;;;;5069515;28;20485;-79
2021/07/25 01:35:59;;;;;;;8.80;6.73;;;18.70;99.90;;;;;;5069448;28;21085;-79
2021/07/25 01:38:27;;;;;;;8.33;7.37;;;18.70;99.90;;;;;;5069277;28;20495;-79
2021/07/25 01:41:04;;;;;;;7.37;6.67;;;18.70;99.90;;;;;;5069016;28;20462;-79
2021/07/25 01:43:32;;;;;;;8.90;7.00;;;18.70;99.90;;;;;;5069526;28;20458;-79
2021/07/25 01:45:59;;;;;;;8.83;7.90;;;18.60;99.90;;;;;;5069204;28;20682;-79
2021/07/25 01:48:25;;;;;;;8.70;7.83;;;18.60;99.90;;;;;;5069823;28;20954;-79
2021/07/25 01:50:52;;;;;;;8.77;7.20;;;18.60;99.90;;;;;;5068960;28;20469;-79
2021/07/25 01:53:20;;;;;;;8.50;7.70;;;18.60;99.90;;;;;;5069098;28;20463;-79
2021/07/25 01:55:47;;;;;;;7.50;6.80;;;18.50;99.90;;;;;;5069322;28;20489;-78
2021/07/25 01:58:13;;;;;;;9.00;8.10;;;18.50;99.90;;;;;;5069430;28;20483;-78
2021/07/25 02:00:40;;;;;;;10.07;8.17;;;18.50;99.90;;;;;;5077172;28;20587;-79
2021/07/25 02:03:07;;;;;;;9.53;7.30;;;18.50;99.90;;;;;;5079790;28;20458;-78
2021/07/25 02:05:36;;;;;;;8.90;8.10;;;18.50;99.90;;;;;;5079101;28;20493;-77
2021/07/25 02:08:03;;;;;;;7.20;6.60;;;18.50;99.90;;;;;;5078867;28;20458;-79
2021/07/25 02:10:31;;;;;;;11.30;8.33;;;18.50;99.90;;;;;;5080414;28;20465;-79
2021/07/25 02:12:58;;;;;;;10.97;9.73;;;18.60;99.90;;;;;;5081188;28;20458;-78
2021/07/25 02:15:25;;;;;;;11.43;9.70;;;18.50;99.90;;;;;;5084484;28;20478;-78
2021/07/25 02:17:52;;;;;;;13.67;10.63;;;18.50;99.90;;;;;;5084393;28;20475;-79
2021/07/25 02:20:19;;;;;;;10.90;9.77;;;18.50;99.90;;;;;;5080078;28;20982;-79
2021/07/25 02:22:45;;;;;;;12.03;9.93;;;18.50;99.90;;;;;;5075687;28;20454;-79
2021/07/25 02:25:12;;;;;;;11.00;9.30;;;18.50;99.90;;;;;;5073887;28;20993;-79
2021/07/25 02:27:40;;;;;;;12.37;9.87;;;18.50;99.90;;;;;;5073922;28;20831;-79
2021/07/25 02:30:08;;;;;;;9.53;8.53;;;18.50;99.90;;;;;;5073142;28;20957;-79
2021/07/25 02:32:35;;;;;;;11.30;9.67;;;18.50;99.90;;;;;;5074149;28;20953;-79
2021/07/25 02:35:01;;;;;;;10.37;9.27;;;18.50;99.90;;;;;;5073550;28;20494;-79
2021/07/25 02:37:28;;;;;;;11.70;9.37;;;18.50;99.90;;;;;;5073681;28;20459;-79
2021/07/25 02:39:55;;;;;;;9.40;8.50;;;18.50;99.90;;;;;;5074797;28;20465;-79
2021/07/25 02:42:22;;;;;;;9.20;8.27;;;18.50;99.90;;;;;;5073762;28;20845;-79
2021/07/25 02:44:50;;;;;;;9.27;8.23;;;18.50;99.90;;;;;;5073794;28;20854;-79
2021/07/25 02:47:17;;;;;;;9.57;8.40;;;18.40;99.90;;;;;;5073958;28;20466;-79
2021/07/25 02:49:44;;;;;;;11.30;8.20;;;18.40;99.90;;;;;;5073096;28;20463;-79
2021/07/25 02:52:11;;;;;;;8.83;7.73;;;18.40;99.90;;;;;;5073518;28;20462;-79
2021/07/25 02:54:38;;;;;;;8.60;7.77;;;18.50;99.90;;;;;;5073565;28;20489;-79
2021/07/25 02:57:05;;;;;;;8.60;7.70;;;18.40;99.90;;;;;;5073792;28;20957;-79
2021/07/25 02:59:32;;;;;;;10.53;8.17;;;18.40;99.90;;;;;;5073159;28;20490;-79
2021/07/25 03:02:00;;;;;;;9.53;8.30;;;18.40;99.90;;;;;;5073549;28;20458;-79
2021/07/25 03:04:27;;;;;;;9.27;8.03;;;18.40;99.90;;;;;;5072414;28;20864;-79
2021/07/25 03:06:53;;;;;;;10.60;9.50;;;18.40;99.90;;;;;;5071835;28;20462;-78
2021/07/25 03:09:20;;;;;;;10.43;8.50;;;18.40;99.90;;;;;;5071630;28;20465;-79
2021/07/25 03:11:47;;;;;;;9.10;8.20;;;18.40;99.90;;;;;;5072393;28;20496;-78
2021/07/25 03:14:13;;;;;;;11.30;9.03;;;18.40;99.90;;;;;;5071692;28;20493;-79
2021/07/25 03:16:40;;;;;;;9.13;8.30;;;18.30;99.90;;;;;;5072426;28;20462;-78
2021/07/25 03:19:09;;;;;;;10.00;9.00;;;18.30;99.90;;;;;;5071511;28;20482;-78
2021/07/25 03:21:36;;;;;;;11.80;9.23;;;18.30;99.90;;;;;;5072314;28;20490;-79
2021/07/25 03:24:02;;;;;;;13.40;9.57;;;18.30;99.90;;;;;;5071843;28;20454;-78
2021/07/25 03:26:29;;;;;;;12.70;8.40;;;18.30;99.90;;;;;;5072277;28;20820;-79
2021/07/25 03:28:56;;;;;;;9.97;8.57;;;18.30;99.90;;;;;;5072944;28;20450;-78
2021/07/25 03:31:23;;;;;;;10.57;8.27;;;18.30;99.90;;;;;;5071204;28;20474;-78
2021/07/25 03:33:49;;;;;;;11.47;7.93;;;18.30;99.90;;;;;;5071837;28;20458;-79
2021/07/25 03:36:17;;;;;;;11.27;8.27;;;18.20;99.90;;;;;;5071321;28;20585;-79
2021/07/25 03:38:44;;;;;;;11.10;8.40;;;18.20;99.90;;;;;;5071663;28;20494;-78
2021/07/25 03:41:11;;;;;;;8.87;7.70;;;18.20;99.90;;;;;;5071033;28;20477;-78
2021/07/25 03:43:37;;;;;;;11.60;7.90;;;18.20;99.90;;;;;;5071367;28;20454;-78
2021/07/25 03:46:04;;;;;;;8.80;7.90;;;18.20;99.90;;;;;;5071697;28;20474;-77
2021/07/25 03:48:31;;;;;;;9.40;8.40;;;18.20;99.90;;;;;;5071618;28;20459;-78
2021/07/25 03:50:58;;;;;;;9.90;7.93;;;18.20;99.90;;;;;;5071026;28;20467;-77
2021/07/25 03:53:27;;;;;;;10.10;7.43;;;18.20;99.90;;;;;;5071385;28;20458;-77
2021/07/25 03:55:54;;;;;;;11.47;8.33;;;18.10;99.90;;;;;;5071973;28;20482;-77
2021/07/25 03:58:20;;;;;;;10.03;7.97;;;18.10;99.90;;;;;;5072332;28;20489;-78
2021/07/25 04:00:47;;;;;;;8.70;7.83;;;18.10;99.90;;;;;;5074387;28;20463;-79
2021/07/25 04:03:14;;;;;;;8.20;7.07;;;18.10;99.90;;;;;;5078502;28;20466;-80
2021/07/25 04:05:40;;;;;;;9.80;7.23;;;18.10;99.90;;;;;;5078364;28;20489;-78
2021/07/25 04:08:09;;;;;;;7.43;6.73;;;18.10;99.90;;;;;;5078667;28;20843;-80
2021/07/25 04:10:41;;;;;;;8.03;7.23;;;18.10;99.90;;;;;;5079276;28;20858;-80
2021/07/25 04:13:08;;;;;;;6.70;6.10;;;18.10;99.90;;;;;;5079925;28;20450;-79
2021/07/25 04:15:38;;;;;;;9.17;7.57;;;18.10;99.90;;;;;;5080015;28;20618;-80
2021/07/25 04:18:05;;;;;;;7.43;6.60;;;18.10;99.90;;;;;;5080487;28;20469;-80
2021/07/25 04:20:32;;;;;;;8.23;7.07;;;18.10;99.90;;;;;;5080290;28;20462;-80
2021/07/25 04:23:01;;;;;;;8.53;6.67;;;18.10;99.90;;;;;;5080496;28;20836;-79
2021/07/25 04:25:28;;;;;;;7.40;6.70;;;18.10;99.90;;;;;;5080349;28;20568;-79
2021/07/25 04:27:57;;;;;;;8.37;6.83;;;18.10;99.90;;;;;;5079471;28;20463;-79
2021/07/25 04:30:25;;;;;;;7.13;6.53;;;18.10;99.90;;;;;;5080034;28;20459;-79
2021/07/25 04:32:53;;;;;;;10.40;6.50;;;18.10;99.90;;;;;;5080156;28;20466;-78
2021/07/25 04:35:21;;;;;;;7.77;6.97;;;18.10;99.90;;;;;;5078813;28;20510;-79
2021/07/25 04:37:51;;;;;;;10.80;7.37;;;18.20;99.90;;;;;;5078286;28;20913;-79
2021/07/25 04:40:20;;;;;;;11.37;8.30;;;18.20;99.90;;;;;;5078286;28;20490;-79
2021/07/25 04:42:50;;;;;;;9.43;8.40;;;18.20;99.90;;;;;;5078974;28;20973;-78
2021/07/25 04:45:29;;;;;;;12.67;9.40;;;18.20;99.90;;;;;;5075423;28;20485;-78
2021/07/25 04:48:05;;;;;;;13.00;9.57;;;18.20;99.90;;;;;;5073335;28;20466;-78
2021/07/25 04:50:36;;;;;;;10.93;9.80;;;18.20;99.90;;;;;;5072571;28;20868;-78
2021/07/25 04:53:05;;;;;;;12.93;11.40;;;18.20;99.90;;;;;;5070979;28;20493;-79
2021/07/25 04:55:33;;;;;;;12.13;10.83;;;18.20;99.90;;;;;;5070981;28;20848;-79
2021/07/25 04:58:04;;;;;;;11.83;10.47;;;18.20;99.90;;;;;;5070406;28;20462;-78
2021/07/25 05:00:33;;;;;;;11.27;10.17;;;18.20;99.90;;;;;;5070197;28;20455;-79
2021/07/25 05:03:05;;;;;;;11.10;9.63;;;18.20;99.90;;;;;;5070637;28;20465;-78
2021/07/25 05:05:32;;;;;;;12.90;9.70;;;18.30;99.90;;;;;;5070424;28;20497;-80
2021/07/25 05:08:01;;;;;;;9.07;8.27;;;18.30;99.90;;;;;;5072874;28;20467;-79
2021/07/25 05:10:29;;;;;;;11.67;7.10;;;18.30;99.90;;;;;;5067961;28;20459;-79
2021/07/25 05:13:00;;;;;;;7.80;7.10;;;18.30;99.90;;;;;;5061459;28;20458;-78
2021/07/25 05:15:34;;;;;;;7.30;6.60;;;18.30;99.90;;;;;;5062127;28;20482;-78
2021/07/25 05:18:07;;;;;;;10.37;6.40;;;18.30;99.90;;;;;;5060333;28;20460;-79
2021/07/25 05:20:39;;;;;;;8.10;6.77;;;18.30;99.90;;;;;;5059368;28;20506;-78
2021/07/25 05:23:17;;;;;;;6.80;6.10;;;18.40;99.90;;;;;;5059231;28;20972;-79
2021/07/25 05:25:50;;;;;;;11.67;6.50;;;18.40;99.90;;;;;;5060314;28;20490;-78
2021/07/25 05:28:19;;;;;;;6.63;6.03;;;18.40;99.90;;;;;;5059001;28;20840;-78
2021/07/25 05:30:51;;;;;;;6.63;5.97;;;18.40;99.90;;;;;;5058516;28;20516;-78
2021/07/25 05:33:18;;;;;;;9.93;7.00;;;18.40;99.90;;;;;;5060746;28;20467;-78
2021/07/25 05:35:45;;;;;;;6.80;5.90;;;18.40;99.90;;;;;;5065523;28;20487;-78
2021/07/25 05:38:12;;;;;;;7.87;6.80;;;18.50;99.90;;;;;;5064949;28;20867;-77
2021/07/25 05:40:39;;;;;;;8.90;7.60;;;18.50;99.90;;;;;;5064621;28;21061;-78
2021/07/25 05:43:06;;;;;;;9.30;7.73;;;18.50;99.90;;;;;;5064156;28;20459;-78
2021/07/25 05:45:32;;;;;;;9.13;7.77;;;18.50;99.90;;;;;;5063942;28;20484;-78
2021/07/25 05:48:00;;;;;;;8.83;7.97;;;18.40;99.90;;;;;;5058329;28;20466;-78
2021/07/25 05:50:27;;;;;;;7.57;6.43;;;18.40;99.90;;;;;;5059276;28;21896;-78
2021/07/25 05:52:56;;;;;;;8.30;7.40;;;18.40;99.90;;;;;;5058406;28;20471;-78
2021/07/25 05:55:24;;;;;;;6.83;6.23;;;18.40;99.90;;;;;;5057088;28;20483;-78
2021/07/25 05:57:50;;;;;;;8.57;6.70;;;18.40;99.90;;;;;;5050366;28;20943;-78
2021/07/25 06:00:18;;;;;;;7.17;6.47;;;18.50;99.90;;;;;;5048742;28;20494;-78
2021/07/25 06:02:52;;;;;;;7.33;6.67;;;18.50;99.90;;;;;;5049268;28;20459;-78
2021/07/25 06:05:21;;;;;;;7.83;7.10;;;18.50;99.90;;;;;;5049812;28;20486;-78
2021/07/25 06:07:49;;;;;;;10.17;8.33;;;18.60;99.90;;;;;;5049190;28;20486;-78
2021/07/25 06:10:16;;;;;;;10.23;8.87;;;18.60;99.90;;;;;;5048831;28;20451;-78
2021/07/25 06:12:43;;;;;;;10.73;9.63;;;18.70;99.90;;;;;;5048983;28;20464;-78
2021/07/25 06:15:11;;;;;;;12.57;11.03;;;18.70;99.90;;;;;;5050202;28;21191;-78
2021/07/25 06:17:38;;;;;;;14.67;11.47;;;18.80;99.90;;;;;;5049517;28;20466;-76
2021/07/25 06:20:06;;;;;;;11.73;10.50;;;18.90;99.90;;;;;;5048589;28;21449;-78
2021/07/25 06:22:42;;;;;;;10.57;9.50;;;18.90;99.90;;;;;;5049363;28;20463;-78
2021/07/25 06:25:10;;;;;;;9.93;8.00;;;18.90;99.90;;;;;;5048634;28;20483;-78
2021/07/25 06:27:38;;;;;;;8.57;6.93;;;18.90;99.90;;;;;;5049133;28;20951;-78
2021/07/25 06:30:05;;;;;;;6.73;5.30;;;18.90;99.90;;;;;;5048158;28;20455;-78
2021/07/25 06:32:32;;;;;;;6.90;6.30;;;19.00;99.90;;;;;;5049491;28;20463;-78
2021/07/25 06:34:59;;;;;;;5.60;5.10;;;19.00;99.90;;;;;;5050181;28;20479;-78
2021/07/25 06:37:25;;;;;;;6.10;5.20;;;19.00;99.90;;;;;;5050935;28;20566;-78
2021/07/25 06:39:54;;;;;;;6.70;6.07;;;19.10;99.90;;;;;;5050842;28;21014;-78
2021/07/25 06:42:20;;;;;;;5.43;5.03;;;19.10;99.90;;;;;;5050598;28;20478;-78
2021/07/25 06:44:47;;;;;;;6.47;4.93;;;19.10;99.90;;;;;;5049749;28;20475;-78
2021/07/25 06:47:13;;;;;;;4.90;4.40;;;19.20;99.90;;;;;;5049245;28;20458;-78
2021/07/25 06:49:40;;;;;;;6.40;5.80;;;19.20;99.90;;;;;;5049877;28;20459;-77
2021/07/25 06:52:08;;;;;;;6.07;5.47;;;19.30;99.90;;;;;;5122557;22;21017;-70
2021/07/25 06:54:34;;;;;;;6.43;5.47;;;19.40;99.90;;;;;;5068192;28;20603;-71
2021/07/25 06:57:02;;;;;;;7.07;5.80;;;19.40;99.90;;;;;;5068486;28;20981;-70
2021/07/25 06:59:29;;;;;;;7.40;6.53;;;19.40;99.90;;;;;;5068374;28;20750;-71
2021/07/25 07:01:56;;;;;;;7.77;6.97;;;19.50;99.90;;;;;;5071141;28;20474;-71
2021/07/25 07:04:23;;;;;;;8.90;7.77;;;19.60;99.90;;;;;;5070820;28;20482;-71
2021/07/25 07:06:49;;;;;;;10.60;8.27;;;19.60;99.90;;;;;;5072911;28;20470;-71
2021/07/25 07:09:16;;;;;;;8.37;7.57;;;19.60;99.90;;;;;;5072038;28;20469;-71
2021/07/25 07:11:43;;;;;;;12.70;9.20;;;19.60;99.90;;;;;;5072274;28;20537;-71
2021/07/25 07:14:11;;;;;;;9.60;8.60;;;19.70;99.90;;;;;;5072219;28;20946;-71
2021/07/25 07:16:37;;;;;;;12.57;10.17;;;19.80;99.90;;;;;;5071848;28;20842;-71
2021/07/25 07:19:04;;;;;;;14.20;9.27;;;19.80;99.90;;;;;;5071858;28;20458;-71
2021/07/25 07:21:31;;;;;;;12.00;9.50;;;19.80;99.90;;;;;;5071228;28;20824;-70
2021/07/25 07:23:57;;;;;;;12.20;10.07;;;19.80;99.90;;;;;;5071690;28;20463;-71
2021/07/25 07:26:24;;;;;;;9.27;8.20;;;19.80;99.90;;;;;;5071405;28;20486;-71
2021/07/25 07:28:51;;;;;;;10.87;9.37;;;19.80;99.90;;;;;;5071620;28;20998;-71
2021/07/25 07:31:19;;;;;;;11.07;8.77;;;19.80;99.90;;;;;;5070781;28;20489;-71
2021/07/25 07:33:46;;;;;;;11.20;9.20;;;19.90;99.90;;;;;;5071269;28;20843;-71
2021/07/25 07:36:12;;;;;;;10.97;9.27;;;19.90;99.90;;;;;;5071370;28;20994;-71
2021/07/25 07:38:39;;;;;;;16.73;10.07;;;19.90;99.90;;;;;;5070928;28;20475;-72
2021/07/25 07:41:06;;;;;;;14.60;9.50;;;19.90;99.90;;;;;;5070893;28;20486;-71
2021/07/25 07:43:33;;;;;;;14.50;10.03;;;19.90;99.90;;;;;;5070837;28;20462;-71
2021/07/25 07:45:59;;;;;;;10.80;9.20;;;19.90;99.90;;;;;;5071299;28;20483;-71
2021/07/25 07:48:27;;;;;;;9.80;8.53;;;19.90;99.90;;;;;;5070985;28;20462;-70
2021/07/25 07:50:54;;;;;;;10.10;8.70;;;19.90;99.90;;;;;;5070890;28;20458;-70
2021/07/25 07:53:21;;;;;;;12.80;8.50;;;19.90;99.90;;;;;;5076489;28;20815;-70
2021/07/25 07:55:48;;;;;;;9.30;8.07;;;19.90;99.90;;;;;;5080160;28;20565;-70
2021/07/25 07:58:15;;;;;;;10.27;9.00;;;19.90;99.90;;;;;;5068917;28;20474;-70
2021/07/25 08:00:42;;;;;;;10.73;8.30;;;20.00;99.90;;;;;;5064881;28;20488;-70
2021/07/25 08:03:09;;;;;;;8.20;7.40;;;20.00;99.90;;;;;;5067915;28;20911;-70
2021/07/25 08:05:37;;;;;;;8.83;7.60;;;20.10;99.90;;;;;;5069034;28;20928;-69
2021/07/25 08:08:04;;;;;;;9.37;8.40;;;20.20;99.90;;;;;;5070200;28;20455;-71
2021/07/25 08:10:31;;;;;;;6.80;6.07;;;20.30;99.90;;;;;;5068116;28;20484;-70
2021/07/25 08:12:58;;;;;;;7.30;6.60;;;20.40;99.90;;;;;;5082952;28;20458;-70
2021/07/25 08:15:24;;;;;;;6.73;5.90;;;20.50;99.90;;;;;;5087888;28;20481;-69
2021/07/25 08:17:51;;;;;;;6.37;5.23;;;20.50;99.90;;;;;;5088570;28;20956;-70
2021/07/25 08:20:18;;;;;;;6.37;5.77;;;20.50;99.90;;;;;;5087833;28;20857;-70
2021/07/25 08:22:49;;;;;;;6.23;5.63;;;20.50;99.90;;;;;;5088639;28;20470;-71
2021/07/25 08:25:16;;;;;;;5.93;5.33;;;20.50;99.90;;;;;;5088503;28;20489;-69
2021/07/25 08:27:43;;;;;;;6.43;5.23;;;20.50;99.90;;;;;;5088035;28;20467;-70
2021/07/25 08:30:11;;;;;;;5.37;4.87;;;20.40;99.90;;;;;;5088034;28;20472;-69
2021/07/25 08:32:38;;;;;;;6.43;5.80;;;20.40;99.90;;;;;;5087747;28;20458;-69
2021/07/25 08:35:05;;;;;;;7.00;5.50;;;20.40;99.90;;;;;;5088440;28;20478;-70
2021/07/25 08:37:32;;;;;;;6.50;5.90;;;20.40;99.90;;;;;;5087430;28;20469;-70
2021/07/25 08:40:01;;;;;;;7.27;6.13;;;20.40;99.90;;;;;;5087535;28;20882;-70
2021/07/25 08:42:33;;;;;;;6.43;5.47;;;20.40;99.90;;;;;;5081590;28;20957;-69
2021/07/25 08:45:00;;;;;;;7.20;6.50;;;20.30;99.90;;;;;;5067572;28;20486;-70
2021/07/25 08:47:39;;;;;;;7.40;6.57;;;20.30;99.90;;;;;;5067790;28;20470;-68
2021/07/25 08:50:12;;;;;;;8.30;6.50;;;20.30;99.90;;;;;;5067761;28;20465;-70
2021/07/25 08:52:40;;;;;;;7.67;6.87;;;20.30;99.90;;;;;;5067148;28;20481;-69
2021/07/25 08:55:12;;;;;;;7.63;6.57;;;20.30;99.90;;;;;;5066821;28;20577;-70
2021/07/25 08:57:41;;;;;;;7.50;6.47;;;20.30;99.90;;;;;;5068160;28;20485;-70
2021/07/25 09:00:10;;;;;;;8.87;6.93;;;20.30;99.90;;;;;;5067440;28;20482;-70
2021/07/25 09:02:37;;;;;;;12.20;7.83;;;20.20;99.90;;;;;;5067720;28;20462;-71
2021/07/25 09:05:05;;;;;;;7.00;5.57;;;20.20;99.90;;;;;;5068133;28;20482;-70
2021/07/25 09:07:33;;;;;;;6.03;5.50;;;20.20;99.90;;;;;;5067834;28;20851;-69
2021/07/25 09:10:03;;;;;;;6.77;5.93;;;20.20;99.90;;;;;;5066544;28;20459;-69
2021/07/25 09:12:32;;;;;;;6.17;5.57;;;20.10;99.90;;;;;;5067863;28;20466;-70
2021/07/25 09:15:00;;;;;;;6.70;6.10;;;20.20;99.90;;;;;;5065828;28;20859;-71
2021/07/25 09:17:28;;;;;;;6.20;5.60;;;20.20;99.90;;;;;;5067391;28;20454;-70
2021/07/25 09:20:12;;;;;;;6.50;5.60;;;20.20;99.90;;;;;;5066422;28;20485;-70
2021/07/25 09:22:40;;;;;;;6.77;5.93;;;20.20;99.90;;;;;;5067083;28;20465;-71
2021/07/25 09:25:08;;;;;;;5.83;5.33;;;20.30;99.90;;;;;;5067292;28;20493;-70
2021/07/25 09:27:36;;;;;;;7.90;5.83;;;20.30;99.90;;;;;;5067706;28;20469;-70
2021/07/25 09:30:17;;;;;;;6.43;5.73;;;20.30;99.90;;;;;;5065526;28;20462;-70
2021/07/25 09:32:44;;;;;;;6.57;5.20;;;20.30;99.90;;;;;;5067542;28;20499;-70
2021/07/25 09:35:24;;;;;;;6.63;6.03;;;20.30;99.90;;;;;;5066885;28;20478;-70
2021/07/25 09:37:51;;;;;;;7.00;6.37;;;20.20;99.90;;;;;;5066964;28;20548;-70
2021/07/25 09:40:25;;;;;;;6.30;5.70;;;20.20;99.90;;;;;;5067212;28;21172;-70
2021/07/25 09:43:08;;;;;;;6.60;5.90;;;20.20;99.90;;;;;;5066986;28;20494;-70
2021/07/25 09:45:54;;;;;;;7.30;6.23;;;20.20;99.90;;;;;;5069065;28;20482;-71
2021/07/25 09:48:23;;;;;;;7.17;6.47;;;20.20;99.90;;;;;;5069521;28;20455;-70
2021/07/25 09:50:51;;;;;;;6.30;5.67;;;20.10;99.90;;;;;;5066800;28;20454;-70
2021/07/25 09:53:18;;;;;;;7.00;6.37;;;20.10;99.90;;;;;;5070286;28;20470;-70
2021/07/25 09:55:46;;;;;;;8.10;5.67;;;20.10;99.90;;;;;;5067926;28;20482;-69
2021/07/25 09:58:14;;;;;;;7.77;5.50;;;20.10;99.90;;;;;;5064868;28;20469;-70
2021/07/25 10:00:43;;;;;;;6.30;5.50;;;20.10;99.90;;;;;;5065374;28;20493;-70
2021/07/25 10:03:24;;;;;;;6.00;5.40;;;20.10;99.90;;;;;;5065280;28;20848;-70
2021/07/25 10:05:51;;;;;;;6.70;5.97;;;20.00;99.90;;;;;;5063400;28;20485;-70
2021/07/25 10:08:19;;;;;;;6.40;5.80;;;20.00;99.90;;;;;;5066144;28;20443;-70
2021/07/25 10:10:47;;;;;;;6.57;5.97;;;19.90;99.90;;;;;;5065869;28;20942;-70
2021/07/25 10:13:16;;;;;;;5.67;4.90;;;19.90;99.90;;;;;;5066010;28;20519;-69
2021/07/25 10:15:46;;;;;;;5.43;4.67;;;19.90;99.90;;;;;;5065528;28;20536;-70
2021/07/25 10:18:13;;;;;;;6.17;5.07;;;19.80;99.90;;;;;;5066409;28;20465;-70
2021/07/25 10:20:41;;;;;;;5.10;4.60;;;19.80;99.90;;;;;;5065289;28;20482;-70
2021/07/25 10:23:09;;;;;;;8.47;5.00;;;19.70;99.90;;;;;;5069436;28;20458;-70
2021/07/25 10:25:37;;;;;;;5.60;4.40;;;19.70;99.90;;;;;;5086328;28;20509;-70
2021/07/25 10:28:06;;;;;;;6.03;5.23;;;19.70;99.90;;;;;;5079849;28;20459;-70
2021/07/25 10:30:34;;;;;;;7.27;5.63;;;19.60;99.90;;;;;;5068967;28;20454;-70
2021/07/25 10:33:02;;;;;;;5.40;5.00;;;19.60;99.90;;;;;;5072505;28;20457;-70
2021/07/25 10:35:29;;;;;;;5.70;5.20;;;19.60;99.90;;;;;;5087746;28;20924;-70
2021/07/25 10:37:56;;;;;;;6.40;5.53;;;19.60;99.90;;;;;;5087093;28;20465;-70
2021/07/25 10:40:24;;;;;;;6.10;5.60;;;19.50;99.90;;;;;;5078273;28;20486;-70
2021/07/25 10:42:52;;;;;;;6.37;5.87;;;19.50;99.90;;;;;;5075056;28;20454;-70
2021/07/25 10:45:19;;;;;;;7.60;5.73;;;19.50;99.90;;;;;;5091149;28;20528;-70
2021/07/25 10:47:48;;;;;;;6.60;6.00;;;19.50;99.90;;;;;;5089133;28;20450;-69
2021/07/25 10:50:19;;;;;;;6.00;5.40;;;19.50;99.90;;;;;;5088154;28;20457;-69
2021/07/25 10:53:02;;;;;;;6.73;6.13;;;19.50;99.90;;;;;;5088810;28;20472;-69
2021/07/25 10:55:45;;;;;;;5.80;5.30;;;19.50;99.90;;;;;;5068523;28;20529;-70
2021/07/25 10:58:13;;;;;;;7.33;6.30;;;19.40;99.90;;;;;;5068795;28;20458;-70
2021/07/25 11:00:42;;;;;;;7.07;6.40;;;19.40;99.90;;;;;;5068275;28;21067;-69
2021/07/25 11:03:48;;;;;;;7.43;6.30;;;19.40;99.90;;;;;;5068604;28;20950;-70
2021/07/25 11:06:18;;;;;;;6.40;5.80;;;19.40;99.90;;;;;;5089206;28;20958;-70
2021/07/25 11:08:47;;;;;;;8.10;6.43;;;19.40;99.90;;;;;;5084444;28;20837;-70
2021/07/25 11:11:54;;;;;;;7.93;6.30;;;19.40;99.90;;;;;;5079606;28;20548;-69
2021/07/25 11:15:04;;;;;;;7.60;6.30;;;19.50;99.90;;;;;;5077699;28;20973;-70
2021/07/25 11:17:48;;;;;;;6.23;5.50;;;19.50;99.90;;;;;;5082618;28;20461;-69
2021/07/25 11:20:57;;;;;;;7.10;6.50;;;19.50;99.90;;;;;;5088383;28;20824;-70
2021/07/25 11:23:41;;;;;;;9.83;7.60;;;19.50;99.90;;;;;;5089592;28;20523;-69
2021/07/25 11:26:32;;;;;;;7.00;6.40;;;19.50;99.90;;;;;;5088775;28;20528;-70
2021/07/25 11:29:00;;;;;;;6.70;6.10;;;19.50;99.90;;;;;;5088816;28;20454;-70
2021/07/25 11:31:37;;;;;;;7.53;6.77;;;19.60;99.90;;;;;;5089252;28;20450;-70
2021/07/25 11:34:06;;;;;;;10.63;9.00;;;19.60;99.90;;;;;;5088305;28;20457;-71
2021/07/25 11:36:34;;;;;;;7.83;7.10;;;19.60;99.90;;;;;;5089497;28;20449;-70
2021/07/25 11:39:04;;;;;;;7.83;7.13;;;19.50;99.90;;;;;;5089340;28;20492;-69
2021/07/25 11:41:33;;;;;;;8.83;7.40;;;19.50;99.90;;;;;;5089168;28;21052;-70
2021/07/25 11:44:01;;;;;;;7.83;7.03;;;19.50;99.90;;;;;;5076841;28;20462;-70
2021/07/25 11:46:31;;;;;;;7.07;6.47;;;19.50;99.90;;;;;;5067087;28;20455;-70
2021/07/25 11:49:13;;;;;;;8.07;7.30;;;19.60;99.90;;;;;;5068959;28;20462;-70
2021/07/25 11:51:46;;;;;;;8.03;7.20;;;19.60;99.90;;;;;;5070458;28;20462;-69
2021/07/25 11:54:18;;;;;;;9.90;8.90;;;19.60;99.90;;;;;;5071597;28;20482;-70
2021/07/25 11:57:03;;;;;;;8.37;7.57;;;19.60;99.90;;;;;;5070100;28;20466;-71
2021/07/25 11:59:31;;;;;;;8.57;7.67;;;19.60;99.90;;;;;;5068779;28;20527;-70
2021/07/25 12:01:58;;;;;;;7.30;6.60;;;19.60;99.90;;;;;;5068710;28;20493;-70
2021/07/25 12:04:28;;;;;;;7.40;6.70;;;19.60;99.90;;;;;;5069234;28;20869;-70
2021/07/25 12:07:12;;;;;;;7.47;6.77;;;19.60;99.90;;;;;;5067979;28;20459;-71
2021/07/25 12:09:43;;;;;;;7.50;6.80;;;19.50;99.90;;;;;;5068587;28;20585;-70
2021/07/25 12:12:13;;;;;;;7.30;6.50;;;19.50;99.90;;;;;;5068519;28;21009;-70
2021/07/25 12:14:42;;;;;;;6.70;6.10;;;19.50;99.90;;;;;;5068399;28;20569;-70
2021/07/25 12:17:10;;;;;;;7.23;6.63;;;19.40;99.90;;;;;;5068741;28;20470;-70
2021/07/25 12:19:43;;;;;;;7.50;6.33;;;19.40;99.90;;;;;;5070639;28;20461;-70
2021/07/25 12:22:13;;;;;;;6.27;5.70;;;19.40;99.90;;;;;;5088615;28;20496;-70
2021/07/25 12:24:42;;;;;;;7.40;6.30;;;19.40;99.90;;;;;;5088915;28;20478;-70
2021/07/25 12:27:40;;;;;;;7.20;6.50;;;19.30;99.90;;;;;;5088033;28;20457;-70
2021/07/25 12:30:17;;;;;;;7.93;6.27;;;19.40;99.90;;;;;;5005793;28;20467;-70
2021/07/25 12:32:45;;;;;;;7.30;6.03;;;19.40;99.90;;;;;;5075728;28;20454;-70
2021/07/25 12:35:23;;;;;;;6.80;6.10;;;19.40;99.90;;;;;;5088227;28;21221;-70
2021/07/25 12:37:53;;;;;;;6.80;5.77;;;19.40;99.90;;;;;;5088566;28;20449;-69
2021/07/25 12:40:23;;;;;;;6.10;5.50;;;19.40;99.90;;;;;;5087267;28;20480;-70
2021/07/25 12:43:05;;;;;;;9.80;6.20;;;19.40;99.90;;;;;;5088096;28;20481;-70
2021/07/25 12:45:43;;;;;;;6.90;6.20;;;19.50;99.90;;;;;;5088699;28;20481;-71
2021/07/25 12:48:34;;;;;;;6.40;5.80;;;19.50;99.90;;;;;;5088464;28;20948;-70
2021/07/25 12:51:21;;;;;;;6.30;5.80;;;19.50;99.90;;;;;;5088080;28;20462;-70
2021/07/25 12:53:56;;;;;;;6.37;5.77;;;19.60;99.90;;;;;;5087979;28;20496;-70
2021/07/25 12:56:26;;;;;;;5.63;5.13;;;19.60;99.90;;;;;;5088462;28;20541;-70